Alvord, Texas
Current Conditions -  °F | °C
As of 8:55 AM on Friday 19 Dec 2014 (Local Time) from KLUD Reporting Station
Haze Haze  
Wind Chill: 39°   Ceiling: 300
Heat Index: 43°   Visibility: 4mi
Dew Point: 43°   Wind: 6mph
Humidity: 100%   Direction: 350°N
Pressure: 30.2"   Gusts: NA
Location:  33.36°N, 97.69°W
Report Text: KLUD 191455Z AUTO 35005KT 4SM BR OVC003 06/06 A3020 RMK AO2 T00610061
Loading
Personal Weather Stations






























Interactive Weather Map New forecast layout! Learn more

10-Day Weather Forecast

Advertisements
Track Severe Weather on mobile